createdAt,value
2023-04-27T00:04:16.719Z,98760.84
2023-04-27T00:09:19.640Z,98770.19
2023-04-27T00:14:22.279Z,98783.25
2023-04-27T00:19:25.863Z,98768.84
2023-04-27T00:24:28.618Z,98771.50
2023-04-27T00:29:33.877Z,98774.97
2023-04-27T00:34:37.306Z,98783.41
2023-04-27T00:39:40.332Z,98760.28
2023-04-27T00:44:43.232Z,98766.34
2023-04-27T00:49:45.984Z,98762.81
2023-04-27T00:54:52.569Z,98751.63
2023-04-27T00:59:57.034Z,98775.47
2023-04-27T01:05:00.538Z,98785.75
2023-04-27T01:10:04.979Z,98776.19
2023-04-27T01:15:08.382Z,98773.81
2023-04-27T01:20:11.908Z,98784.94
2023-04-27T01:25:15.176Z,98753.56
2023-04-27T01:30:17.900Z,98770.81
2023-04-27T01:35:20.700Z,98748.63
2023-04-27T01:40:23.444Z,98755.44
2023-04-27T01:45:26.102Z,98770.00
2023-04-27T01:50:28.733Z,98775.16
2023-04-27T01:55:31.398Z,98777.72
2023-04-27T02:00:34.343Z,98787.09
2023-04-27T02:05:37.970Z,98788.72
2023-04-27T02:10:40.827Z,98793.88
2023-04-27T02:15:43.782Z,98760.47
2023-04-27T02:20:46.528Z,98793.31
2023-04-27T02:25:49.147Z,98783.63
2023-04-27T02:30:51.937Z,98801.91
2023-04-27T02:35:54.557Z,98791.75
2023-04-27T02:40:57.318Z,98795.41
2023-04-27T02:46:06.320Z,98787.31
2023-04-27T02:51:08.997Z,98807.16
2023-04-27T02:56:11.690Z,98810.88
2023-04-27T03:01:17.518Z,98814.28
2023-04-27T03:06:20.409Z,98823.94
2023-04-27T03:11:23.112Z,98836.84
2023-04-27T03:16:26.008Z,98832.38
2023-04-27T03:21:28.872Z,98815.06
2023-04-27T03:26:31.799Z,98841.44
2023-04-27T03:31:34.668Z,98836.31
2023-04-27T03:36:37.835Z,98844.94
2023-04-27T03:41:41.220Z,98842.44
2023-04-27T03:46:44.151Z,98853.38
2023-04-27T03:51:47.949Z,98846.75
2023-04-27T03:56:51.041Z,98858.38
2023-04-27T04:01:54.775Z,98863.56
2023-04-27T04:06:57.656Z,98862.13
2023-04-27T04:12:02.189Z,98852.44
2023-04-27T04:17:05.375Z,98855.84
2023-04-27T04:22:08.419Z,98869.75
2023-04-27T04:27:11.761Z,98855.50
2023-04-27T04:32:17.966Z,98870.06
2023-04-27T04:37:20.907Z,98856.16
2023-04-27T04:42:23.956Z,98863.19
2023-04-27T04:47:28.152Z,98864.63
2023-04-27T04:52:31.073Z,98864.78
2023-04-27T04:57:33.799Z,98873.53
2023-04-27T05:02:37.050Z,98875.53
2023-04-27T05:07:41.497Z,98880.66
2023-04-27T05:12:45.018Z,98880.53
2023-04-27T05:17:48.009Z,98877.94
2023-04-27T05:22:50.815Z,98878.63
2023-04-27T05:27:54.008Z,98870.84
2023-04-27T05:32:57.353Z,98884.03
2023-04-27T05:38:00.743Z,98887.38
2023-04-27T05:43:05.799Z,98881.06
2023-04-27T05:48:09.304Z,98877.13
2023-04-27T05:53:12.426Z,98879.72
2023-04-27T05:58:18.803Z,98891.06
2023-04-27T07:07:58.295Z,98903.28
2023-04-27T07:13:02.696Z,98900.56
2023-04-27T07:18:05.957Z,98891.09
2023-04-27T07:23:08.906Z,98879.41
2023-04-27T07:28:12.068Z,98870.78
2023-04-27T07:33:14.828Z,98890.47
2023-04-27T07:38:20.987Z,98897.41
2023-04-27T07:43:25.737Z,98902.94
2023-04-27T07:48:31.473Z,98905.03
2023-04-27T07:53:36.116Z,98885.00
2023-04-27T07:58:38.896Z,98907.47
2023-04-27T08:03:42.047Z,98902.66
2023-04-27T08:08:44.994Z,98911.47
2023-04-27T08:13:47.763Z,98899.50
2023-04-27T08:18:51.018Z,98894.25
2023-04-27T08:23:53.704Z,98904.78
2023-04-27T08:28:57.603Z,98899.31
2023-04-27T08:34:00.269Z,98895.31
2023-04-27T08:39:05.756Z,98897.19
2023-04-27T08:44:08.748Z,98893.00
2023-04-27T08:49:13.163Z,98909.00
2023-04-27T08:54:17.381Z,98901.00
2023-04-27T08:59:20.610Z,98903.66
2023-04-27T09:04:43.892Z,98908.38
2023-04-27T09:09:53.639Z,98906.19
2023-04-27T09:15:06.154Z,98894.44
2023-04-27T09:20:13.069Z,98906.94
2023-04-27T09:25:30.394Z,98891.63
2023-04-27T09:30:37.225Z,98903.63
2023-04-27T09:35:47.009Z,98887.72
2023-04-27T09:40:51.649Z,98905.41
2023-04-27T09:45:55.821Z,98906.19
2023-04-27T09:50:58.764Z,98894.22
2023-04-27T09:56:29.220Z,98903.22
2023-04-27T10:02:17.058Z,98901.22
2023-04-27T10:07:30.126Z,98892.88
2023-04-27T10:12:37.198Z,98906.06
2023-04-27T10:17:53.518Z,98914.97
2023-04-27T10:22:56.320Z,98915.13
2023-04-27T10:28:02.236Z,98922.72
2023-04-27T10:33:08.821Z,98897.31
2023-04-27T10:38:28.860Z,98891.09
2023-04-27T10:43:37.853Z,98915.66
2023-04-27T10:48:47.625Z,98930.09
2023-04-27T10:53:53.734Z,98930.53
2023-04-27T10:59:03.767Z,98928.53
2023-04-27T11:04:06.722Z,98916.72
2023-04-27T11:14:27.590Z,98927.84
2023-04-27T11:19:31.063Z,98923.66
2023-04-27T11:24:35.117Z,98915.88
2023-04-27T11:29:39.241Z,98934.00
2023-04-27T11:34:53.843Z,98914.69
2023-04-27T11:40:05.914Z,98923.81
2023-04-27T11:45:20.556Z,98921.22
2023-04-27T11:50:29.093Z,98916.91
2023-04-27T11:55:37.693Z,98916.91
2023-04-27T12:00:49.970Z,98916.03
2023-04-27T12:05:56.800Z,98911.97
2023-04-27T12:11:08.017Z,98901.72
2023-04-27T12:16:28.557Z,98889.63
2023-04-27T12:21:32.503Z,98883.53
2023-04-27T12:26:35.643Z,98892.16
2023-04-27T12:31:38.673Z,98897.94
2023-04-27T12:36:41.509Z,98892.16
2023-04-27T12:52:36.584Z,98893.63
2023-04-27T12:57:39.196Z,98873.28
2023-04-27T13:02:43.533Z,98867.03
2023-04-27T13:07:46.330Z,98879.50
2023-04-27T13:12:49.314Z,98874.53
2023-04-27T13:17:53.313Z,98863.44
2023-04-27T13:22:56.511Z,98886.03
2023-04-27T13:27:59.307Z,98876.13
2023-04-27T13:33:18.483Z,98881.59
2023-04-27T13:38:28.179Z,98895.00
2023-04-27T13:43:36.638Z,98895.41
2023-04-27T13:48:47.096Z,98891.22
2023-04-27T13:53:49.883Z,98894.25
2023-04-27T13:58:52.739Z,98899.22
2023-04-27T14:03:55.845Z,98889.63
2023-04-27T14:09:04.439Z,98876.03
2023-04-27T14:14:20.752Z,98893.94
2023-04-27T14:19:38.702Z,98905.19
2023-04-27T14:24:44.256Z,98907.38
2023-04-27T14:29:50.388Z,98901.69
2023-04-27T14:34:53.129Z,98897.53
2023-04-27T14:39:57.468Z,98849.75
2023-04-27T14:45:36.727Z,98895.81
2023-04-27T14:50:45.729Z,98878.78
2023-04-27T14:55:48.947Z,98898.94
2023-04-27T15:00:52.431Z,98885.16
2023-04-27T15:05:55.525Z,98893.34
2023-04-27T15:11:01.408Z,98891.69
2023-04-27T15:16:09.970Z,98898.97
2023-04-27T15:21:15.806Z,98883.38
2023-04-27T15:26:18.800Z,98896.44
2023-04-27T15:31:22.278Z,98898.47
2023-04-27T15:36:42.512Z,98902.16
2023-04-27T15:41:51.675Z,98909.19
2023-04-27T15:46:59.554Z,98915.09
2023-04-27T15:52:02.422Z,98906.59
2023-04-27T15:57:05.219Z,98919.53
2023-04-27T16:02:08.343Z,98915.22
2023-04-27T16:07:24.280Z,98916.69
2023-04-27T16:12:30.457Z,98877.34
2023-04-27T16:17:39.898Z,98927.31
2023-04-27T16:22:42.605Z,98930.06
2023-04-27T16:27:50.367Z,98938.38
2023-04-27T16:33:02.684Z,98937.41
2023-04-27T16:38:06.148Z,98918.84
2023-04-27T16:43:09.109Z,98934.88
2023-04-27T16:48:13.352Z,98944.25
2023-04-27T16:53:21.352Z,98930.81
2023-04-27T16:58:59.371Z,98957.31
2023-04-27T17:04:02.618Z,98952.50
2023-04-27T17:09:17.817Z,98961.88
2023-04-27T17:19:40.763Z,98960.78
2023-04-27T17:24:43.538Z,98971.19
2023-04-27T17:29:47.173Z,98975.84
2023-04-27T17:34:51.423Z,98973.31
2023-04-27T17:39:54.619Z,98985.34
2023-04-27T17:44:57.459Z,98953.72
2023-04-27T17:50:00.158Z,98971.06
2023-04-27T17:55:03.044Z,98990.34
2023-04-27T18:00:07.428Z,98960.44
2023-04-27T18:05:12.810Z,98969.66
2023-04-27T18:10:15.669Z,98982.81
2023-04-27T18:15:18.413Z,98947.03
2023-04-27T18:20:23.251Z,98946.66
2023-04-27T18:25:26.299Z,98974.59
2023-04-27T18:30:30.596Z,98961.38
2023-04-27T18:35:33.449Z,98973.72
2023-04-27T18:40:37.105Z,98969.97
2023-04-27T18:45:39.922Z,98941.44
2023-04-27T18:50:42.788Z,98970.50
2023-04-27T18:55:45.530Z,98959.59
2023-04-27T19:00:48.266Z,98958.66
2023-04-27T19:05:53.392Z,98960.50
2023-04-27T19:10:56.309Z,98949.44
2023-04-27T19:15:59.388Z,98946.00
2023-04-27T19:21:03.530Z,98943.38
2023-04-27T19:26:13.255Z,98940.78
2023-04-27T19:31:17.741Z,98943.34
2023-04-27T19:36:20.551Z,98944.38
2023-04-27T19:41:23.959Z,98943.44
2023-04-27T19:46:27.096Z,98913.75
2023-04-27T19:51:30.538Z,98934.22
2023-04-27T19:56:33.474Z,98936.97
2023-04-27T20:01:36.509Z,98949.16
2023-04-27T20:06:40.935Z,98941.03
2023-04-27T20:11:43.595Z,98934.50
2023-04-27T20:16:46.700Z,98937.09
2023-04-27T20:21:50.184Z,98940.03
2023-04-27T20:26:52.765Z,98934.25
2023-04-27T20:31:55.415Z,98945.34
2023-04-27T20:36:58.220Z,98942.72
2023-04-27T20:42:04.411Z,98947.16
2023-04-27T20:47:13.395Z,98935.06
2023-04-27T20:52:16.431Z,98933.97
2023-04-27T20:57:28.631Z,98916.31
2023-04-27T21:02:39.517Z,98941.94
2023-04-27T21:07:42.551Z,98945.63
2023-04-27T21:12:45.248Z,98949.03
2023-04-27T21:17:48.065Z,98942.47
2023-04-27T21:22:53.922Z,98954.72
2023-04-27T21:27:56.895Z,98949.28
2023-04-27T21:33:11.520Z,98950.59
2023-04-27T21:38:14.106Z,98960.75
2023-04-27T21:43:16.869Z,98955.16
2023-04-27T21:48:19.872Z,98957.13
2023-04-27T21:53:23.224Z,98954.47
2023-04-27T21:58:26.215Z,98940.41
2023-04-27T22:03:31.452Z,98960.00
2023-04-27T22:08:37.101Z,98873.97
2023-04-27T22:13:39.781Z,98959.44
2023-04-27T22:18:45.295Z,98936.00
2023-04-27T22:23:48.599Z,98950.19
2023-04-27T22:28:56.893Z,98933.13
2023-04-27T22:33:59.616Z,98947.09
2023-04-27T22:39:02.566Z,98921.06
2023-04-27T22:44:12.637Z,98938.41
2023-04-27T22:49:24.668Z,98931.22
2023-04-27T22:54:34.883Z,98940.28
2023-04-27T22:59:37.444Z,98946.81
2023-04-27T23:04:43.960Z,98929.88
2023-04-27T23:09:48.371Z,98920.53
2023-04-27T23:14:54.156Z,98939.06
2023-04-27T23:19:58.130Z,98944.47
2023-04-27T23:25:03.647Z,98930.09
2023-04-27T23:30:13.701Z,98924.25
2023-04-27T23:35:23.690Z,98938.97
2023-04-27T23:40:30.413Z,98928.94
2023-04-27T23:45:35.879Z,98917.22
2023-04-27T23:50:41.552Z,98925.03
2023-04-27T23:55:49.617Z,98932.53
